sensor_id;sensor_type;location;lat;lon;timestamp;temperature;humidity
23283;DHT22;11810;51.178;3.878;2022-08-01T00:01:57;20.70;99.90
23283;DHT22;11810;51.178;3.878;2022-08-01T00:04:23;20.60;99.90
23283;DHT22;11810;51.178;3.878;2022-08-01T00:06:49;20.50;99.90
23283;DHT22;11810;51.178;3.878;2022-08-01T00:09:15;20.40;99.90
23283;DHT22;11810;51.178;3.878;2022-08-01T00:11:41;20.40;99.90
23283;DHT22;11810;51.178;3.878;2022-08-01T00:14:08;20.40;99.90
23283;DHT22;11810;51.178;3.878;2022-08-01T00:16:36;20.60;99.90
23283;DHT22;11810;51.178;3.878;2022-08-01T00:19:02;20.70;99.90
23283;DHT22;11810;51.178;3.878;2022-08-01T00:21:28;20.60;99.90
23283;DHT22;11810;51.178;3.878;2022-08-01T00:23:54;20.70;99.90
23283;DHT22;11810;51.178;3.878;2022-08-01T00:26:20;20.60;99.90
23283;DHT22;11810;51.178;3.878;2022-08-01T00:28:46;20.40;99.90
23283;DHT22;11810;51.178;3.878;2022-08-01T00:31:12;20.40;99.90
23283;DHT22;11810;51.178;3.878;2022-08-01T00:33:38;20.30;99.90
23283;DHT22;11810;51.178;3.878;2022-08-01T00:36:04;20.30;99.90
23283;DHT22;11810;51.178;3.878;2022-08-01T00:38:30;20.40;99.90
23283;DHT22;11810;51.178;3.878;2022-08-01T00:40:57;20.40;99.90
23283;DHT22;11810;51.178;3.878;2022-08-01T00:43:23;20.30;99.90
23283;DHT22;11810;51.178;3.878;2022-08-01T00:45:49;20.30;99.90
23283;DHT22;11810;51.178;3.878;2022-08-01T00:48:15;20.30;99.90
23283;DHT22;11810;51.178;3.878;2022-08-01T00:50:41;20.30;99.90
23283;DHT22;11810;51.178;3.878;2022-08-01T00:53:07;20.30;99.90
23283;DHT22;11810;51.178;3.878;2022-08-01T00:55:33;20.10;99.90
23283;DHT22;11810;51.178;3.878;2022-08-01T00:58:00;20.10;99.90
23283;DHT22;11810;51.178;3.878;2022-08-01T01:00:26;20.20;99.90
23283;DHT22;11810;51.178;3.878;2022-08-01T01:02:52;20.20;99.90
23283;DHT22;11810;51.178;3.878;2022-08-01T01:05:18;20.20;99.90
23283;DHT22;11810;51.178;3.878;2022-08-01T01:08:35;20.30;99.90
23283;DHT22;11810;51.178;3.878;2022-08-01T01:11:06;20.30;99.90
23283;DHT22;11810;51.178;3.878;2022-08-01T01:13:45;20.40;99.90
23283;DHT22;11810;51.178;3.878;2022-08-01T01:16:15;20.50;99.90
23283;DHT22;11810;51.178;3.878;2022-08-01T01:18:55;20.50;99.90
23283;DHT22;11810;51.178;3.878;2022-08-01T01:29:17;20.30;99.90
23283;DHT22;11810;51.178;3.878;2022-08-01T01:32:13;20.30;99.90
23283;DHT22;11810;51.178;3.878;2022-08-01T01:34:40;20.20;99.90
23283;DHT22;11810;51.178;3.878;2022-08-01T01:37:09;20.20;99.90
23283;DHT22;11810;51.178;3.878;2022-08-01T01:39:37;20.20;99.90
23283;DHT22;11810;51.178;3.878;2022-08-01T01:42:06;20.20;99.90
23283;DHT22;11810;51.178;3.878;2022-08-01T01:44:32;20.30;99.90
23283;DHT22;11810;51.178;3.878;2022-08-01T01:47:00;20.20;99.90
23283;DHT22;11810;51.178;3.878;2022-08-01T01:49:27;20.20;99.90
23283;DHT22;11810;51.178;3.878;2022-08-01T01:51:56;20.20;99.90
23283;DHT22;11810;51.178;3.878;2022-08-01T01:54:25;20.10;99.90
23283;DHT22;11810;51.178;3.878;2022-08-01T01:56:56;20.20;99.90
23283;DHT22;11810;51.178;3.878;2022-08-01T01:59:27;20.20;99.90
23283;DHT22;11810;51.178;3.878;2022-08-01T02:01:58;20.20;99.90
23283;DHT22;11810;51.178;3.878;2022-08-01T02:04:25;20.20;99.90
23283;DHT22;11810;51.178;3.878;2022-08-01T02:06:53;20.10;99.90
23283;DHT22;11810;51.178;3.878;2022-08-01T02:09:21;20.20;99.90
23283;DHT22;11810;51.178;3.878;2022-08-01T02:11:48;20.20;99.90
23283;DHT22;11810;51.178;3.878;2022-08-01T02:14:17;20.20;99.90
23283;DHT22;11810;51.178;3.878;2022-08-01T02:16:50;20.10;99.90
23283;DHT22;11810;51.178;3.878;2022-08-01T02:19:19;20.10;99.90
23283;DHT22;11810;51.178;3.878;2022-08-01T02:22:00;20.10;99.90
23283;DHT22;11810;51.178;3.878;2022-08-01T02:27:53;20.10;99.90
23283;DHT22;11810;51.178;3.878;2022-08-01T02:30:16;20.20;99.90
23283;DHT22;11810;51.178;3.878;2022-08-01T02:32:57;20.30;99.90
23283;DHT22;11810;51.178;3.878;2022-08-01T02:35:32;20.30;99.90
23283;DHT22;11810;51.178;3.878;2022-08-01T02:38:00;20.20;99.90
23283;DHT22;11810;51.178;3.878;2022-08-01T02:40:29;20.20;99.90
23283;DHT22;11810;51.178;3.878;2022-08-01T02:42:57;20.20;99.90
23283;DHT22;11810;51.178;3.878;2022-08-01T02:45:26;20.20;99.90
23283;DHT22;11810;51.178;3.878;2022-08-01T02:47:55;20.20;99.90
23283;DHT22;11810;51.178;3.878;2022-08-01T02:50:23;20.30;99.90
23283;DHT22;11810;51.178;3.878;2022-08-01T02:52:52;20.30;99.90
23283;DHT22;11810;51.178;3.878;2022-08-01T02:55:20;20.10;99.90
23283;DHT22;11810;51.178;3.878;2022-08-01T02:57:49;20.00;99.90
23283;DHT22;11810;51.178;3.878;2022-08-01T03:00:18;20.00;99.90
23283;DHT22;11810;51.178;3.878;2022-08-01T03:02:45;19.90;99.90
23283;DHT22;11810;51.178;3.878;2022-08-01T03:05:15;19.80;99.90
23283;DHT22;11810;51.178;3.878;2022-08-01T03:07:42;20.00;99.90
23283;DHT22;11810;51.178;3.878;2022-08-01T03:10:10;20.00;99.90
23283;DHT22;11810;51.178;3.878;2022-08-01T03:12:37;20.00;99.90
23283;DHT22;11810;51.178;3.878;2022-08-01T03:15:04;20.00;99.90
23283;DHT22;11810;51.178;3.878;2022-08-01T03:17:31;20.00;99.90
23283;DHT22;11810;51.178;3.878;2022-08-01T03:19:59;19.90;99.90
23283;DHT22;11810;51.178;3.878;2022-08-01T03:22:27;20.00;99.90
23283;DHT22;11810;51.178;3.878;2022-08-01T03:24:56;20.10;99.90
23283;DHT22;11810;51.178;3.878;2022-08-01T03:27:25;20.10;99.90
23283;DHT22;11810;51.178;3.878;2022-08-01T03:29:52;20.00;99.90
23283;DHT22;11810;51.178;3.878;2022-08-01T03:32:21;19.90;99.90
23283;DHT22;11810;51.178;3.878;2022-08-01T03:34:47;19.70;99.90
23283;DHT22;11810;51.178;3.878;2022-08-01T03:40:00;19.60;99.90
23283;DHT22;11810;51.178;3.878;2022-08-01T03:42:32;19.50;99.90
23283;DHT22;11810;51.178;3.878;2022-08-01T03:45:07;19.50;99.90
23283;DHT22;11810;51.178;3.878;2022-08-01T03:47:42;19.40;99.90
23283;DHT22;11810;51.178;3.878;2022-08-01T03:50:12;19.40;99.90
23283;DHT22;11810;51.178;3.878;2022-08-01T03:52:41;19.30;99.90
23283;DHT22;11810;51.178;3.878;2022-08-01T03:55:10;19.40;99.90
23283;DHT22;11810;51.178;3.878;2022-08-01T03:57:37;19.60;99.90
23283;DHT22;11810;51.178;3.878;2022-08-01T04:00:05;19.60;99.90
23283;DHT22;11810;51.178;3.878;2022-08-01T04:02:34;19.60;99.90
23283;DHT22;11810;51.178;3.878;2022-08-01T04:05:02;19.60;99.90
23283;DHT22;11810;51.178;3.878;2022-08-01T04:07:30;19.70;99.90
23283;DHT22;11810;51.178;3.878;2022-08-01T04:09:57;19.60;99.90
23283;DHT22;11810;51.178;3.878;2022-08-01T04:12:23;19.80;99.90
23283;DHT22;11810;51.178;3.878;2022-08-01T04:14:49;19.80;99.90
23283;DHT22;11810;51.178;3.878;2022-08-01T04:17:16;19.80;99.90
23283;DHT22;11810;51.178;3.878;2022-08-01T04:19:43;19.80;99.90
23283;DHT22;11810;51.178;3.878;2022-08-01T04:22:10;19.80;99.90
23283;DHT22;11810;51.178;3.878;2022-08-01T04:24:37;19.80;99.90
23283;DHT22;11810;51.178;3.878;2022-08-01T04:27:08;19.90;99.90
23283;DHT22;11810;51.178;3.878;2022-08-01T04:29:36;20.00;99.90
23283;DHT22;11810;51.178;3.878;2022-08-01T04:32:03;19.90;99.90
23283;DHT22;11810;51.178;3.878;2022-08-01T04:34:31;20.00;99.90
23283;DHT22;11810;51.178;3.878;2022-08-01T04:36:58;20.00;99.90
23283;DHT22;11810;51.178;3.878;2022-08-01T04:39:28;20.00;99.90
23283;DHT22;11810;51.178;3.878;2022-08-01T04:41:58;19.90;99.90
23283;DHT22;11810;51.178;3.878;2022-08-01T04:44:26;19.80;99.90
23283;DHT22;11810;51.178;3.878;2022-08-01T04:46:54;19.80;99.90
23283;DHT22;11810;51.178;3.878;2022-08-01T04:49:22;19.70;99.90
23283;DHT22;11810;51.178;3.878;2022-08-01T04:51:52;19.70;99.90
23283;DHT22;11810;51.178;3.878;2022-08-01T04:54:24;19.60;99.90
23283;DHT22;11810;51.178;3.878;2022-08-01T04:56:51;19.60;99.90
23283;DHT22;11810;51.178;3.878;2022-08-01T04:59:19;19.50;99.90
23283;DHT22;11810;51.178;3.878;2022-08-01T05:02:04;19.50;99.90
23283;DHT22;11810;51.178;3.878;2022-08-01T05:04:30;19.60;99.90
23283;DHT22;11810;51.178;3.878;2022-08-01T05:06:55;19.60;99.90
23283;DHT22;11810;51.178;3.878;2022-08-01T05:09:21;19.60;99.90
23283;DHT22;11810;51.178;3.878;2022-08-01T05:11:47;19.60;99.90
23283;DHT22;11810;51.178;3.878;2022-08-01T05:14:13;19.90;99.90
23283;DHT22;11810;51.178;3.878;2022-08-01T05:16:39;19.90;99.90
23283;DHT22;11810;51.178;3.878;2022-08-01T05:19:05;20.10;99.90
23283;DHT22;11810;51.178;3.878;2022-08-01T05:21:34;20.60;99.90
23283;DHT22;11810;51.178;3.878;2022-08-01T05:24:00;20.60;99.90
23283;DHT22;11810;51.178;3.878;2022-08-01T05:26:26;20.70;99.90
23283;DHT22;11810;51.178;3.878;2022-08-01T05:28:52;20.80;99.90
23283;DHT22;11810;51.178;3.878;2022-08-01T05:31:18;20.80;99.90
23283;DHT22;11810;51.178;3.878;2022-08-01T05:33:44;20.80;99.90
23283;DHT22;11810;51.178;3.878;2022-08-01T05:36:10;20.90;99.90
23283;DHT22;11810;51.178;3.878;2022-08-01T05:38:36;20.80;99.90
23283;DHT22;11810;51.178;3.878;2022-08-01T05:41:02;20.70;99.90
23283;DHT22;11810;51.178;3.878;2022-08-01T05:43:28;20.70;99.90
23283;DHT22;11810;51.178;3.878;2022-08-01T05:45:54;20.80;99.90
23283;DHT22;11810;51.178;3.878;2022-08-01T05:48:20;20.80;99.90
23283;DHT22;11810;51.178;3.878;2022-08-01T05:50:46;20.90;99.90
23283;DHT22;11810;51.178;3.878;2022-08-01T05:53:13;21.00;99.90
23283;DHT22;11810;51.178;3.878;2022-08-01T05:55:39;21.10;99.90
23283;DHT22;11810;51.178;3.878;2022-08-01T05:58:05;21.10;99.90
23283;DHT22;11810;51.178;3.878;2022-08-01T06:00:31;21.30;99.90
23283;DHT22;11810;51.178;3.878;2022-08-01T06:02:57;21.30;99.90
23283;DHT22;11810;51.178;3.878;2022-08-01T06:05:23;21.40;99.90
23283;DHT22;11810;51.178;3.878;2022-08-01T06:07:49;21.40;99.90
23283;DHT22;11810;51.178;3.878;2022-08-01T06:10:15;21.60;99.90
23283;DHT22;11810;51.178;3.878;2022-08-01T06:12:41;21.70;99.90
23283;DHT22;11810;51.178;3.878;2022-08-01T06:15:07;21.60;99.90
23283;DHT22;11810;51.178;3.878;2022-08-01T06:17:33;21.50;99.90
23283;DHT22;11810;51.178;3.878;2022-08-01T06:19:59;21.50;99.90
23283;DHT22;11810;51.178;3.878;2022-08-01T06:22:25;21.50;99.90
23283;DHT22;11810;51.178;3.878;2022-08-01T06:24:51;21.60;99.90
23283;DHT22;11810;51.178;3.878;2022-08-01T06:27:17;21.60;99.90
23283;DHT22;11810;51.178;3.878;2022-08-01T06:29:43;21.60;99.90
23283;DHT22;11810;51.178;3.878;2022-08-01T06:32:09;21.60;99.90
23283;DHT22;11810;51.178;3.878;2022-08-01T06:34:36;21.40;99.90
23283;DHT22;11810;51.178;3.878;2022-08-01T06:37:02;21.30;99.90
23283;DHT22;11810;51.178;3.878;2022-08-01T06:39:28;21.50;99.90
23283;DHT22;11810;51.178;3.878;2022-08-01T06:41:53;21.70;99.90
23283;DHT22;11810;51.178;3.878;2022-08-01T06:44:19;21.70;99.90
23283;DHT22;11810;51.178;3.878;2022-08-01T06:46:45;21.90;99.90
23283;DHT22;11810;51.178;3.878;2022-08-01T06:49:11;21.90;99.90
23283;DHT22;11810;51.178;3.878;2022-08-01T06:51:37;22.10;99.90
23283;DHT22;11810;51.178;3.878;2022-08-01T06:54:03;22.10;99.90
23283;DHT22;11810;51.178;3.878;2022-08-01T06:56:29;22.20;99.90
23283;DHT22;11810;51.178;3.878;2022-08-01T06:58:55;22.10;99.90
23283;DHT22;11810;51.178;3.878;2022-08-01T07:01:27;22.20;99.90
23283;DHT22;11810;51.178;3.878;2022-08-01T07:03:53;22.20;99.90
23283;DHT22;11810;51.178;3.878;2022-08-01T07:06:21;22.30;99.90
23283;DHT22;11810;51.178;3.878;2022-08-01T07:08:47;22.80;99.90
23283;DHT22;11810;51.178;3.878;2022-08-01T07:11:13;23.50;99.90
23283;DHT22;11810;51.178;3.878;2022-08-01T07:13:39;24.00;99.90
23283;DHT22;11810;51.178;3.878;2022-08-01T07:16:05;24.20;99.90
23283;DHT22;11810;51.178;3.878;2022-08-01T07:18:31;24.00;99.90
23283;DHT22;11810;51.178;3.878;2022-08-01T07:20:57;24.10;99.90
23283;DHT22;11810;51.178;3.878;2022-08-01T07:23:23;24.30;99.90
23283;DHT22;11810;51.178;3.878;2022-08-01T07:25:49;24.60;99.90
23283;DHT22;11810;51.178;3.878;2022-08-01T07:28:18;24.30;99.90
23283;DHT22;11810;51.178;3.878;2022-08-01T07:30:44;24.00;99.90
23283;DHT22;11810;51.178;3.878;2022-08-01T07:33:10;24.10;99.90
23283;DHT22;11810;51.178;3.878;2022-08-01T07:35:36;24.00;99.90
23283;DHT22;11810;51.178;3.878;2022-08-01T07:38:05;24.00;99.90
23283;DHT22;11810;51.178;3.878;2022-08-01T07:40:31;23.80;99.90
23283;DHT22;11810;51.178;3.878;2022-08-01T07:42:57;23.70;99.90
23283;DHT22;11810;51.178;3.878;2022-08-01T07:45:23;24.00;99.90
23283;DHT22;11810;51.178;3.878;2022-08-01T07:47:49;24.00;99.90
23283;DHT22;11810;51.178;3.878;2022-08-01T07:50:15;24.20;99.90
23283;DHT22;11810;51.178;3.878;2022-08-01T07:52:42;24.30;99.90
23283;DHT22;11810;51.178;3.878;2022-08-01T07:55:10;24.40;99.90
23283;DHT22;11810;51.178;3.878;2022-08-01T07:57:36;25.20;99.90
23283;DHT22;11810;51.178;3.878;2022-08-01T08:00:06;26.60;99.90
23283;DHT22;11810;51.178;3.878;2022-08-01T08:02:33;26.70;99.90
23283;DHT22;11810;51.178;3.878;2022-08-01T08:04:59;26.30;99.90
23283;DHT22;11810;51.178;3.878;2022-08-01T08:07:25;25.80;99.90
23283;DHT22;11810;51.178;3.878;2022-08-01T08:09:51;25.80;99.90
23283;DHT22;11810;51.178;3.878;2022-08-01T08:12:18;25.60;99.90
23283;DHT22;11810;51.178;3.878;2022-08-01T08:14:44;26.10;99.90
23283;DHT22;11810;51.178;3.878;2022-08-01T08:17:10;26.20;99.90
23283;DHT22;11810;51.178;3.878;2022-08-01T08:19:36;26.00;99.90
23283;DHT22;11810;51.178;3.878;2022-08-01T08:22:05;26.30;99.90
23283;DHT22;11810;51.178;3.878;2022-08-01T08:24:31;25.90;99.90
23283;DHT22;11810;51.178;3.878;2022-08-01T08:26:59;26.60;99.90
23283;DHT22;11810;51.178;3.878;2022-08-01T08:29:27;27.00;99.90
23283;DHT22;11810;51.178;3.878;2022-08-01T08:31:55;27.00;99.90
23283;DHT22;11810;51.178;3.878;2022-08-01T08:34:22;27.00;99.90
23283;DHT22;11810;51.178;3.878;2022-08-01T08:36:51;27.60;99.90
23283;DHT22;11810;51.178;3.878;2022-08-01T08:39:18;28.00;99.90
23283;DHT22;11810;51.178;3.878;2022-08-01T08:41:44;27.70;99.90
23283;DHT22;11810;51.178;3.878;2022-08-01T08:44:10;27.10;99.90
23283;DHT22;11810;51.178;3.878;2022-08-01T08:46:44;27.00;99.90
23283;DHT22;11810;51.178;3.878;2022-08-01T08:49:12;26.50;99.90
23283;DHT22;11810;51.178;3.878;2022-08-01T08:51:39;26.50;99.90
23283;DHT22;11810;51.178;3.878;2022-08-01T08:54:06;26.70;99.90
23283;DHT22;11810;51.178;3.878;2022-08-01T08:56:34;26.50;99.90
23283;DHT22;11810;51.178;3.878;2022-08-01T08:59:02;26.50;99.90
23283;DHT22;11810;51.178;3.878;2022-08-01T09:01:28;27.50;99.90
23283;DHT22;11810;51.178;3.878;2022-08-01T09:03:58;29.50;99.90
23283;DHT22;11810;51.178;3.878;2022-08-01T09:06:24;31.10;99.90
23283;DHT22;11810;51.178;3.878;2022-08-01T09:08:50;32.60;99.90
23283;DHT22;11810;51.178;3.878;2022-08-01T09:11:16;32.60;99.90
23283;DHT22;11810;51.178;3.878;2022-08-01T09:14:01;32.40;99.90
23283;DHT22;11810;51.178;3.878;2022-08-01T09:16:27;31.60;99.90
23283;DHT22;11810;51.178;3.878;2022-08-01T09:18:53;31.10;99.90
23283;DHT22;11810;51.178;3.878;2022-08-01T09:21:20;32.10;99.90
23283;DHT22;11810;51.178;3.878;2022-08-01T09:23:53;33.00;99.90
23283;DHT22;11810;51.178;3.878;2022-08-01T09:26:34;33.70;99.90
23283;DHT22;11810;51.178;3.878;2022-08-01T09:29:06;33.70;99.90
23283;DHT22;11810;51.178;3.878;2022-08-01T09:31:43;32.90;99.90
23283;DHT22;11810;51.178;3.878;2022-08-01T09:34:09;32.90;99.90
23283;DHT22;11810;51.178;3.878;2022-08-01T09:36:52;33.60;99.90
23283;DHT22;11810;51.178;3.878;2022-08-01T09:39:28;35.30;99.90
23283;DHT22;11810;51.178;3.878;2022-08-01T09:41:57;35.70;99.90
23283;DHT22;11810;51.178;3.878;2022-08-01T09:44:43;35.20;99.90
23283;DHT22;11810;51.178;3.878;2022-08-01T09:47:11;35.20;99.90
23283;DHT22;11810;51.178;3.878;2022-08-01T09:49:38;34.70;99.90
23283;DHT22;11810;51.178;3.878;2022-08-01T09:54:38;34.60;99.90
23283;DHT22;11810;51.178;3.878;2022-08-01T09:59:38;33.60;99.90
23283;DHT22;11810;51.178;3.878;2022-08-01T10:02:08;32.40;99.90
23283;DHT22;11810;51.178;3.878;2022-08-01T10:04:35;32.00;99.90
23283;DHT22;11810;51.178;3.878;2022-08-01T10:07:07;31.80;99.90
23283;DHT22;11810;51.178;3.878;2022-08-01T10:09:35;31.40;99.90
23283;DHT22;11810;51.178;3.878;2022-08-01T10:12:03;31.00;99.90
23283;DHT22;11810;51.178;3.878;2022-08-01T10:14:30;30.80;99.90
23283;DHT22;11810;51.178;3.878;2022-08-01T10:16:58;31.10;99.90
23283;DHT22;11810;51.178;3.878;2022-08-01T10:19:25;30.90;99.90
23283;DHT22;11810;51.178;3.878;2022-08-01T10:21:53;31.60;99.90
23283;DHT22;11810;51.178;3.878;2022-08-01T10:24:23;32.20;99.90
23283;DHT22;11810;51.178;3.878;2022-08-01T10:26:54;33.10;99.90
23283;DHT22;11810;51.178;3.878;2022-08-01T10:29:21;33.50;99.90
23283;DHT22;11810;51.178;3.878;2022-08-01T10:31:48;33.10;99.90
23283;DHT22;11810;51.178;3.878;2022-08-01T10:34:16;33.60;99.90
23283;DHT22;11810;51.178;3.878;2022-08-01T10:36:47;33.40;99.90
23283;DHT22;11810;51.178;3.878;2022-08-01T10:39:14;32.90;99.90
23283;DHT22;11810;51.178;3.878;2022-08-01T10:41:40;32.80;99.90
23283;DHT22;11810;51.178;3.878;2022-08-01T10:44:07;32.50;99.90
23283;DHT22;11810;51.178;3.878;2022-08-01T10:46:38;32.10;99.90
23283;DHT22;11810;51.178;3.878;2022-08-01T10:49:06;32.40;99.90
23283;DHT22;11810;51.178;3.878;2022-08-01T10:51:36;31.80;99.90
23283;DHT22;11810;51.178;3.878;2022-08-01T10:54:06;31.90;99.90
23283;DHT22;11810;51.178;3.878;2022-08-01T10:56:46;32.30;99.90
23283;DHT22;11810;51.178;3.878;2022-08-01T10:59:27;32.60;99.90
23283;DHT22;11810;51.178;3.878;2022-08-01T11:01:58;33.30;99.90
23283;DHT22;11810;51.178;3.878;2022-08-01T11:07:16;33.80;99.90
23283;DHT22;11810;51.178;3.878;2022-08-01T11:09:47;33.10;99.90
23283;DHT22;11810;51.178;3.878;2022-08-01T11:12:15;32.20;99.90
23283;DHT22;11810;51.178;3.878;2022-08-01T11:17:42;32.60;99.90
23283;DHT22;11810;51.178;3.878;2022-08-01T11:20:16;33.50;99.90
23283;DHT22;11810;51.178;3.878;2022-08-01T11:26:05;33.70;99.90
23283;DHT22;11810;51.178;3.878;2022-08-01T11:30:43;33.10;99.90
23283;DHT22;11810;51.178;3.878;2022-08-01T11:33:09;33.70;99.90
23283;DHT22;11810;51.178;3.878;2022-08-01T11:35:36;34.70;99.90
23283;DHT22;11810;51.178;3.878;2022-08-01T11:38:25;35.20;99.90
23283;DHT22;11810;51.178;3.878;2022-08-01T11:41:23;35.60;99.90
23283;DHT22;11810;51.178;3.878;2022-08-01T11:44:05;34.70;99.90
23283;DHT22;11810;51.178;3.878;2022-08-01T11:52:06;34.10;99.90
23283;DHT22;11810;51.178;3.878;2022-08-01T11:57:28;33.80;99.90
23283;DHT22;11810;51.178;3.878;2022-08-01T11:59:58;33.90;99.90
23283;DHT22;11810;51.178;3.878;2022-08-01T12:02:27;33.40;99.90
23283;DHT22;11810;51.178;3.878;2022-08-01T12:05:04;33.10;99.90
23283;DHT22;11810;51.178;3.878;2022-08-01T12:07:32;32.30;99.90
23283;DHT22;11810;51.178;3.878;2022-08-01T12:10:02;31.60;99.90
23283;DHT22;11810;51.178;3.878;2022-08-01T12:12:29;31.10;99.90
23283;DHT22;11810;51.178;3.878;2022-08-01T12:15:00;31.10;99.90
23283;DHT22;11810;51.178;3.878;2022-08-01T12:17:38;30.70;99.90
23283;DHT22;11810;51.178;3.878;2022-08-01T12:20:07;30.80;99.90
23283;DHT22;11810;51.178;3.878;2022-08-01T12:22:33;30.80;99.90
23283;DHT22;11810;51.178;3.878;2022-08-01T12:25:18;30.50;99.90
23283;DHT22;11810;51.178;3.878;2022-08-01T12:27:44;30.40;99.90
23283;DHT22;11810;51.178;3.878;2022-08-01T12:30:19;30.40;99.90
23283;DHT22;11810;51.178;3.878;2022-08-01T12:32:49;30.20;99.90
23283;DHT22;11810;51.178;3.878;2022-08-01T12:35:20;30.10;99.90
23283;DHT22;11810;51.178;3.878;2022-08-01T12:37:54;30.20;99.90
23283;DHT22;11810;51.178;3.878;2022-08-01T12:40:30;29.90;99.90
23283;DHT22;11810;51.178;3.878;2022-08-01T12:43:05;29.90;99.90
23283;DHT22;11810;51.178;3.878;2022-08-01T12:45:38;30.30;99.90
23283;DHT22;11810;51.178;3.878;2022-08-01T12:48:12;30.30;99.90
23283;DHT22;11810;51.178;3.878;2022-08-01T12:50:43;30.40;99.90
23283;DHT22;11810;51.178;3.878;2022-08-01T12:53:10;30.20;99.90
23283;DHT22;11810;51.178;3.878;2022-08-01T12:55:49;30.30;99.90
23283;DHT22;11810;51.178;3.878;2022-08-01T12:58:16;30.70;99.90
23283;DHT22;11810;51.178;3.878;2022-08-01T13:00:45;31.30;99.90
23283;DHT22;11810;51.178;3.878;2022-08-01T13:03:12;31.90;99.90
23283;DHT22;11810;51.178;3.878;2022-08-01T13:05:43;32.60;99.90
23283;DHT22;11810;51.178;3.878;2022-08-01T13:08:14;33.50;99.90
23283;DHT22;11810;51.178;3.878;2022-08-01T13:10:42;33.70;99.90
23283;DHT22;11810;51.178;3.878;2022-08-01T13:13:09;33.80;98.50
23283;DHT22;11810;51.178;3.878;2022-08-01T13:15:37;34.10;98.90
23283;DHT22;11810;51.178;3.878;2022-08-01T13:18:25;34.00;99.80
23283;DHT22;11810;51.178;3.878;2022-08-01T13:21:13;34.60;99.20
23283;DHT22;11810;51.178;3.878;2022-08-01T13:23:42;34.60;99.40
23283;DHT22;11810;51.178;3.878;2022-08-01T13:26:58;34.70;98.20
23283;DHT22;11810;51.178;3.878;2022-08-01T13:29:39;34.60;96.50
23283;DHT22;11810;51.178;3.878;2022-08-01T13:32:15;34.70;95.60
23283;DHT22;11810;51.178;3.878;2022-08-01T13:34:41;34.70;96.90
23283;DHT22;11810;51.178;3.878;2022-08-01T13:37:07;34.50;96.40
23283;DHT22;11810;51.178;3.878;2022-08-01T13:39:34;34.10;96.80
23283;DHT22;11810;51.178;3.878;2022-08-01T13:42:06;34.40;95.80
23283;DHT22;11810;51.178;3.878;2022-08-01T13:44:32;34.10;93.50
23283;DHT22;11810;51.178;3.878;2022-08-01T13:46:58;34.30;94.00
23283;DHT22;11810;51.178;3.878;2022-08-01T13:49:24;34.30;93.90
23283;DHT22;11810;51.178;3.878;2022-08-01T13:51:50;34.70;92.50
23283;DHT22;11810;51.178;3.878;2022-08-01T13:54:17;34.30;93.40
23283;DHT22;11810;51.178;3.878;2022-08-01T13:56:43;33.80;92.90
23283;DHT22;11810;51.178;3.878;2022-08-01T13:59:09;33.70;92.90
23283;DHT22;11810;51.178;3.878;2022-08-01T14:01:35;33.40;92.90
23283;DHT22;11810;51.178;3.878;2022-08-01T14:04:02;33.70;91.60
23283;DHT22;11810;51.178;3.878;2022-08-01T14:06:28;33.60;92.10
23283;DHT22;11810;51.178;3.878;2022-08-01T14:08:55;33.80;91.50
23283;DHT22;11810;51.178;3.878;2022-08-01T14:11:21;33.80;91.80
23283;DHT22;11810;51.178;3.878;2022-08-01T14:13:47;34.10;92.00
23283;DHT22;11810;51.178;3.878;2022-08-01T14:16:12;33.80;90.40
23283;DHT22;11810;51.178;3.878;2022-08-01T14:18:38;33.00;90.80
23283;DHT22;11810;51.178;3.878;2022-08-01T14:21:04;32.30;91.30
23283;DHT22;11810;51.178;3.878;2022-08-01T14:23:30;32.00;91.70
23283;DHT22;11810;51.178;3.878;2022-08-01T14:25:56;32.30;91.30
23283;DHT22;11810;51.178;3.878;2022-08-01T14:28:22;32.10;91.40
23283;DHT22;11810;51.178;3.878;2022-08-01T14:30:49;31.90;91.40
23283;DHT22;11810;51.178;3.878;2022-08-01T14:33:15;31.60;91.50
23283;DHT22;11810;51.178;3.878;2022-08-01T14:35:41;31.50;91.70
23283;DHT22;11810;51.178;3.878;2022-08-01T14:38:07;31.10;92.80
23283;DHT22;11810;51.178;3.878;2022-08-01T14:40:34;30.90;94.20
23283;DHT22;11810;51.178;3.878;2022-08-01T14:43:00;30.90;94.60
23283;DHT22;11810;51.178;3.878;2022-08-01T14:45:27;31.80;94.20
23283;DHT22;11810;51.178;3.878;2022-08-01T14:47:53;32.10;93.80
23283;DHT22;11810;51.178;3.878;2022-08-01T14:50:19;32.30;91.60
23283;DHT22;11810;51.178;3.878;2022-08-01T14:52:45;32.20;92.00
23283;DHT22;11810;51.178;3.878;2022-08-01T14:55:12;31.80;92.10
23283;DHT22;11810;51.178;3.878;2022-08-01T14:57:39;31.80;92.70
23283;DHT22;11810;51.178;3.878;2022-08-01T15:00:07;32.10;91.90
23283;DHT22;11810;51.178;3.878;2022-08-01T15:02:36;32.30;91.90
23283;DHT22;11810;51.178;3.878;2022-08-01T15:05:02;32.40;91.10
23283;DHT22;11810;51.178;3.878;2022-08-01T15:07:28;32.10;91.50
23283;DHT22;11810;51.178;3.878;2022-08-01T15:09:54;32.60;90.70
23283;DHT22;11810;51.178;3.878;2022-08-01T15:12:20;32.50;91.80
23283;DHT22;11810;51.178;3.878;2022-08-01T15:14:46;32.20;92.30
23283;DHT22;11810;51.178;3.878;2022-08-01T15:17:22;32.30;92.60
23283;DHT22;11810;51.178;3.878;2022-08-01T15:19:53;32.00;92.30
23283;DHT22;11810;51.178;3.878;2022-08-01T15:22:23;31.00;93.50
23283;DHT22;11810;51.178;3.878;2022-08-01T15:24:51;30.80;94.00
23283;DHT22;11810;51.178;3.878;2022-08-01T15:27:17;31.00;94.50
23283;DHT22;11810;51.178;3.878;2022-08-01T15:29:43;31.40;94.30
23283;DHT22;11810;51.178;3.878;2022-08-01T15:32:09;31.70;93.30
23283;DHT22;11810;51.178;3.878;2022-08-01T15:34:36;31.50;93.60
23283;DHT22;11810;51.178;3.878;2022-08-01T15:37:03;31.30;93.70
23283;DHT22;11810;51.178;3.878;2022-08-01T15:39:29;31.40;93.90
23283;DHT22;11810;51.178;3.878;2022-08-01T15:42:00;30.80;94.00
23283;DHT22;11810;51.178;3.878;2022-08-01T15:44:27;30.50;94.60
23283;DHT22;11810;51.178;3.878;2022-08-01T15:46:53;30.60;95.30
23283;DHT22;11810;51.178;3.878;2022-08-01T15:49:19;30.80;94.70
23283;DHT22;11810;51.178;3.878;2022-08-01T15:51:48;30.60;94.90
23283;DHT22;11810;51.178;3.878;2022-08-01T15:54:15;30.30;95.20
23283;DHT22;11810;51.178;3.878;2022-08-01T15:56:41;30.00;95.00
23283;DHT22;11810;51.178;3.878;2022-08-01T15:59:07;30.10;95.00
23283;DHT22;11810;51.178;3.878;2022-08-01T16:01:34;29.80;95.70
23283;DHT22;11810;51.178;3.878;2022-08-01T16:04:00;30.00;95.60
23283;DHT22;11810;51.178;3.878;2022-08-01T16:06:26;29.60;96.10
23283;DHT22;11810;51.178;3.878;2022-08-01T16:08:52;29.50;97.20
23283;DHT22;11810;51.178;3.878;2022-08-01T16:11:18;29.50;95.90
23283;DHT22;11810;51.178;3.878;2022-08-01T16:13:45;29.40;96.00
23283;DHT22;11810;51.178;3.878;2022-08-01T16:16:13;29.20;96.50
23283;DHT22;11810;51.178;3.878;2022-08-01T16:18:41;29.50;95.90